Time;durP1;ratioP1;P1;durP2;ratioP2;P2;SDS_P1;SDS_P2;PMS_P1;PMS_P2;Temp;Humidity;BMP_temperature;BMP_pressure;BME280_temperature;BME280_humidity;BME280_pressure;Samples;Min_cycle;Max_cycle;Signal;HPM_P1;HPM_P2
2022/10/06 00:00:08;;;;;;;47.72;23.90;;;;;;;29.46;68.81;101024.84;5007504;28;66769;-38
2022/10/06 00:02:38;;;;;;;34.17;22.45;;;;;;;29.49;68.91;101019.84;5012016;28;70314;-39
2022/10/06 00:05:09;;;;;;;36.72;20.27;;;;;;;29.53;70.12;101036.47;5005769;28;66393;-39
2022/10/06 00:07:40;;;;;;;25.40;17.75;;;;;;;29.35;69.71;101010.88;5018992;28;69352;-39
2022/10/06 00:10:10;;;;;;;29.15;18.23;;;;;;;29.58;69.59;101047.47;5021630;28;65743;-39
2022/10/06 00:12:43;;;;;;;26.02;17.35;;;;;;;29.11;69.60;100974.53;5020822;28;70133;-39
2022/10/06 00:15:17;;;;;;;32.10;17.85;;;;;;;29.55;70.15;101037.91;5020643;28;66105;-39
2022/10/06 00:17:48;;;;;;;24.80;16.20;;;;;;;29.65;70.54;101072.69;5021798;28;70393;-39
2022/10/06 00:20:19;;;;;;;22.10;14.93;;;;;;;29.69;70.82;101063.13;5013094;28;65979;-39
2022/10/06 00:22:50;;;;;;;25.60;15.18;;;;;;;29.59;69.54;101051.88;5020254;28;69218;-39
2022/10/06 00:25:22;;;;;;;19.05;12.95;;;;;;;29.72;71.16;101078.09;5021526;28;65440;-41
2022/10/06 00:27:53;;;;;;;20.45;13.27;;;;;;;29.74;70.57;101081.44;5019563;28;69286;-40
2022/10/06 00:30:26;;;;;;;21.40;13.13;;;;;;;29.18;70.47;100990.72;5021755;28;65281;-40
2022/10/06 00:33:03;;;;;;;20.38;13.80;;;;;;;29.50;71.00;101032.28;5021135;28;70219;-40
2022/10/06 00:35:34;;;;;;;18.10;12.80;;;;;;;29.76;71.76;101085.59;5012505;28;66552;-39
2022/10/06 00:38:04;;;;;;;17.40;12.50;;;;;;;29.82;70.78;101087.47;5014659;28;70090;-41
2022/10/06 00:40:46;;;;;;;17.20;11.65;;;;;;;29.83;71.10;101090.97;5016142;28;65521;-40
2022/10/06 00:43:58;;;;;;;21.23;12.27;;;;;;;29.78;72.20;101094.34;5019802;28;70290;-40
2022/10/06 00:46:46;;;;;;;19.20;12.20;;;;;;;29.83;72.26;101091.81;5021103;28;64707;-41
2022/10/06 00:49:38;;;;;;;16.02;10.73;;;;;;;29.86;69.99;101073.50;4997259;28;69888;-39
2022/10/06 00:52:14;;;;;;;13.90;10.70;;;;;;;29.96;66.87;101085.56;5019665;28;65813;-40
2022/10/06 00:54:44;;;;;;;10.20;9.23;;;;;;;30.09;66.42;101090.16;5020726;28;70137;-40
2022/10/06 00:57:15;;;;;;;10.18;9.00;;;;;;;30.12;66.69;101089.72;5021373;28;65683;-39
2022/10/06 00:59:47;;;;;;;9.55;8.77;;;;;;;30.15;66.32;101094.72;4997518;28;69963;-39
2022/10/06 01:02:28;;;;;;;10.23;9.27;;;;;;;30.09;66.08;101094.72;5017441;28;65663;-39
2022/10/06 01:05:02;;;;;;;9.65;8.85;;;;;;;29.65;66.10;101013.22;5013283;28;69071;-39
2022/10/06 01:07:32;;;;;;;10.18;9.23;;;;;;;30.20;65.55;101096.78;5006144;28;66384;-39
2022/10/06 01:10:03;;;;;;;12.88;8.95;;;;;;;30.27;65.48;101108.47;5013839;28;69841;-39
2022/10/06 01:12:34;;;;;;;13.07;8.63;;;;;;;30.28;65.49;101105.56;5011121;28;65776;-39
2022/10/06 01:15:06;;;;;;;13.82;10.18;;;;;;;30.30;65.36;101107.22;5011405;28;70457;-39
2022/10/06 01:17:51;;;;;;;9.73;8.82;;;;;;;30.26;65.24;101099.53;5002094;28;66755;-39
2022/10/06 01:20:22;;;;;;;11.38;9.25;;;;;;;30.34;65.33;101092.19;5007481;28;70586;-38
2022/10/06 01:23:06;;;;;;;10.15;9.27;;;;;;;29.82;65.67;101016.31;5002842;28;65795;-39
2022/10/06 01:25:37;;;;;;;11.63;9.45;;;;;;;30.24;65.52;101076.41;5003322;28;70514;-39
2022/10/06 01:28:09;;;;;;;10.35;9.30;;;;;;;30.38;65.28;101098.88;5006414;28;66861;-39
2022/10/06 01:30:51;;;;;;;10.52;9.18;;;;;;;29.84;65.43;101012.38;5010567;28;69428;-39
2022/10/06 01:33:24;;;;;;;10.88;9.02;;;;;;;30.34;65.54;101087.66;4987567;28;66866;-38
2022/10/06 01:35:56;;;;;;;9.75;8.80;;;;;;;30.42;65.50;101100.09;5000229;28;69358;-39
2022/10/06 01:38:26;;;;;;;9.18;8.27;;;;;;;30.47;65.65;101103.00;5017586;28;67075;-38
2022/10/06 01:41:02;;;;;;;9.13;8.23;;;;;;;30.44;65.87;101106.13;4998548;28;69520;-40
2022/10/06 01:43:35;;;;;;;10.60;8.27;;;;;;;30.51;65.52;101123.22;5008929;28;66629;-39
2022/10/06 01:46:06;;;;;;;9.60;8.70;;;;;;;30.51;65.41;101125.91;5011552;28;70033;-39
2022/10/06 01:48:37;;;;;;;9.18;8.25;;;;;;;30.54;65.35;101138.19;4993347;28;64996;-39
2022/10/06 01:51:12;;;;;;;10.00;7.95;;;;;;;29.93;65.00;101039.19;5015984;28;70127;-39
2022/10/06 01:53:44;;;;;;;9.50;8.63;;;;;;;30.58;65.17;101142.13;4997232;28;66537;-39
2022/10/06 01:56:14;;;;;;;9.25;8.35;;;;;;;30.60;65.29;101138.16;5013670;28;70105;-41
2022/10/06 01:58:45;;;;;;;8.45;7.75;;;;;;;30.54;65.13;101125.50;5002346;28;66387;-39
2022/10/06 02:01:16;;;;;;;7.72;7.13;;;;;;;30.62;65.05;101137.94;4995633;28;69942;-39
2022/10/06 02:03:46;;;;;;;9.68;7.88;;;;;;;30.66;64.72;101145.44;5002632;28;65290;-40
2022/10/06 02:06:50;;;;;;;7.80;7.13;;;;;;;30.60;65.12;101132.75;4921670;28;69373;-40
2022/10/06 02:09:21;;;;;;;8.27;7.28;;;;;;;30.69;65.06;101134.19;4916367;28;66176;-39
2022/10/06 02:11:54;;;;;;;9.10;7.30;;;;;;;30.67;65.32;101120.03;4906282;28;70014;-39
2022/10/06 02:14:25;;;;;;;10.50;7.70;;;;;;;30.71;64.91;101125.84;4920501;28;66174;-38
2022/10/06 02:16:55;;;;;;;11.07;7.30;;;;;;;30.75;65.22;101127.06;4917421;28;70122;-38
2022/10/06 02:19:26;;;;;;;7.57;6.90;;;;;;;30.78;64.56;101136.66;4913609;28;66731;-39
2022/10/06 02:21:59;;;;;;;7.75;7.05;;;;;;;30.79;65.02;101127.50;4918364;28;70141;-40
2022/10/06 02:24:30;;;;;;;9.50;6.65;;;;;;;30.68;64.94;101110.84;4916255;28;65817;-38
2022/10/06 02:27:00;;;;;;;8.07;7.28;;;;;;;30.78;65.04;101129.34;4915874;28;69979;-39
2022/10/06 02:29:31;;;;;;;7.47;6.88;;;;;;;30.86;64.88;101139.16;4904061;28;65735;-39
2022/10/06 02:32:02;;;;;;;7.87;6.27;;;;;;;30.84;64.42;101130.41;4896479;28;70015;-38
2022/10/06 02:34:33;;;;;;;12.07;6.25;;;;;;;30.90;64.71;101140.41;4913590;28;66388;-39
2022/10/06 02:37:05;;;;;;;7.47;5.68;;;;;;;30.94;64.66;101141.63;4930483;28;70194;-41
2022/10/06 02:39:36;;;;;;;7.05;5.70;;;;;;;30.56;64.63;101082.75;5012633;28;65803;-39
2022/10/06 02:42:06;;;;;;;7.65;6.10;;;;;;;30.97;64.50;101138.47;5014800;28;69450;-39
2022/10/06 02:44:39;;;;;;;10.13;6.10;;;;;;;30.99;64.12;101141.81;5012831;28;67035;-39
2022/10/06 02:47:13;;;;;;;6.65;5.55;;;;;;;31.02;64.07;101133.25;5007865;28;70495;-39
2022/10/06 02:49:44;;;;;;;8.20;6.35;;;;;;;31.04;64.02;101131.16;4990458;28;65511;-38
2022/10/06 02:52:16;;;;;;;6.13;5.65;;;;;;;31.08;64.10;101121.56;4994715;28;70186;-38
2022/10/06 02:54:47;;;;;;;5.80;5.20;;;;;;;31.10;63.98;101116.75;5017095;28;66844;-39
2022/10/06 02:57:17;;;;;;;6.07;5.40;;;;;;;31.11;63.81;101115.69;5016583;28;69783;-39
2022/10/06 02:59:48;;;;;;;8.20;5.95;;;;;;;31.15;63.75;101111.53;5015846;28;66294;-39
2022/10/06 03:02:18;;;;;;;7.45;6.07;;;;;;;31.19;63.86;101111.09;5015590;28;71183;-39
2022/10/06 03:04:49;;;;;;;6.10;5.63;;;;;;;31.22;63.93;101116.06;5016697;28;66238;-39
2022/10/06 03:07:20;;;;;;;6.18;5.68;;;;;;;31.13;63.66;101102.78;5013343;28;70073;-38
2022/10/06 03:09:50;;;;;;;5.72;5.22;;;;;;;31.27;63.63;101118.97;5015478;28;66660;-39
2022/10/06 03:12:23;;;;;;;5.95;5.50;;;;;;;31.28;63.99;101120.63;4999174;28;70569;-40
2022/10/06 03:14:53;;;;;;;6.13;5.28;;;;;;;31.25;63.45;101110.22;5014660;28;66344;-39
2022/10/06 03:17:24;;;;;;;8.60;5.40;;;;;;;31.34;63.42;101126.00;5016214;28;69983;-39
2022/10/06 03:19:58;;;;;;;9.02;5.63;;;;;;;31.36;63.48;101125.81;5015774;28;66601;-38
2022/10/06 03:22:28;;;;;;;7.32;4.97;;;;;;;31.39;63.53;101122.66;5016322;28;69564;-39
2022/10/06 03:24:58;;;;;;;7.40;5.88;;;;;;;31.39;63.47;101119.94;5018634;28;65985;-45
2022/10/06 03:27:29;;;;;;;7.18;5.60;;;;;;;31.42;63.33;101127.66;5019053;28;70405;-38
2022/10/06 03:30:04;;;;;;;9.65;5.53;;;;;;;31.43;63.52;101123.91;5026334;28;66277;-39
2022/10/06 03:32:37;;;;;;;6.18;5.22;;;;;;;31.34;63.57;101115.16;5001415;28;70389;-39
2022/10/06 03:35:09;;;;;;;6.15;5.10;;;;;;;31.23;63.52;101086.06;4994544;28;65376;-39
2022/10/06 03:37:40;;;;;;;6.90;4.93;;;;;;;31.42;63.39;101121.41;4993082;28;70239;-44
2022/10/06 03:40:11;;;;;;;8.70;5.18;;;;;;;31.49;63.41;101112.19;5017257;28;66177;-39
2022/10/06 03:42:42;;;;;;;8.23;5.53;;;;;;;31.52;63.50;101122.59;4998126;28;69740;-39
2022/10/06 03:45:12;;;;;;;11.18;4.88;;;;;;;31.56;63.43;101120.25;4999344;28;65423;-39
2022/10/06 03:47:43;;;;;;;5.18;4.85;;;;;;;31.58;63.28;101124.41;5005941;28;70290;-38
2022/10/06 03:50:13;;;;;;;6.75;5.35;;;;;;;31.60;63.32;101125.03;5006121;28;66119;-39
2022/10/06 03:52:50;;;;;;;4.63;4.23;;;;;;;31.49;63.46;101106.75;5019051;28;70163;-39
2022/10/06 03:55:20;;;;;;;13.02;4.65;;;;;;;31.53;63.23;101105.25;5016693;28;65606;-39
2022/10/06 03:57:51;;;;;;;4.40;4.00;;;;;;;31.61;63.63;101110.41;4997812;28;71109;-39
2022/10/06 04:00:21;;;;;;;6.68;4.82;;;;;;;31.57;63.84;101109.19;4998920;28;65627;-39
2022/10/06 04:02:52;;;;;;;7.32;4.60;;;;;;;31.65;63.67;101104.53;5015388;28;70412;-39
2022/10/06 04:05:22;;;;;;;6.50;4.63;;;;;;;31.57;63.96;101092.94;4999249;28;66547;-39
2022/10/06 04:07:53;;;;;;;5.43;4.78;;;;;;;31.64;64.01;101102.91;4998582;28;70012;-39
2022/10/06 04:10:23;;;;;;;7.18;4.18;;;;;;;31.51;63.74;101072.13;5017967;28;65722;-39
2022/10/06 04:12:54;;;;;;;10.10;4.50;;;;;;;31.67;63.51;101103.28;5017619;28;70106;-39
2022/10/06 04:15:24;;;;;;;4.38;3.97;;;;;;;31.68;63.81;101094.09;5003440;28;66384;-39
2022/10/06 04:17:54;;;;;;;5.90;4.18;;;;;;;31.70;63.48;101089.28;5008286;28;69366;-39
2022/10/06 04:20:25;;;;;;;6.87;4.57;;;;;;;31.64;63.67;101086.63;4999456;28;66836;-39
2022/10/06 04:22:56;;;;;;;12.32;3.75;;;;;;;31.72;63.43;101094.50;4997241;28;69681;-39
2022/10/06 04:25:27;;;;;;;5.38;4.13;;;;;;;31.63;63.49;101080.38;5007914;28;66456;-40
2022/10/06 04:27:58;;;;;;;11.98;4.28;;;;;;;31.72;63.44;101083.63;5009079;28;70306;-39
2022/10/06 04:30:29;;;;;;;13.53;4.20;;;;;;;31.74;63.48;101087.78;5016061;28;67089;-39
2022/10/06 04:33:00;;;;;;;10.30;4.30;;;;;;;31.75;63.52;101077.75;4995580;28;70239;-39
2022/10/06 04:35:30;;;;;;;8.00;3.85;;;;;;;31.77;63.42;101076.50;5009521;28;66808;-39
2022/10/06 04:38:00;;;;;;;6.85;3.50;;;;;;;31.77;63.57;101081.91;5015254;28;70457;-39
2022/10/06 04:40:32;;;;;;;13.73;3.65;;;;;;;31.76;63.56;101079.41;5009329;28;64252;-38
2022/10/06 04:43:03;;;;;;;10.53;3.50;;;;;;;31.78;63.56;101075.44;5000692;28;69283;-40
2022/10/06 04:45:34;;;;;;;10.75;3.45;;;;;;;31.78;63.34;101071.91;5010456;28;66060;-38
2022/10/06 04:48:05;;;;;;;13.32;3.45;;;;;;;31.83;62.83;101077.50;5012192;28;70830;-38
2022/10/06 04:50:38;;;;;;;8.85;3.00;;;;;;;31.84;63.29;101068.28;5013955;28;66186;-39
2022/10/06 04:53:12;;;;;;;8.77;2.95;;;;;;;31.79;62.99;101043.75;5003107;28;70233;-40
2022/10/06 04:55:43;;;;;;;13.18;3.28;;;;;;;31.86;63.06;101041.78;4975718;28;67342;-38
2022/10/06 04:58:14;;;;;;;9.85;3.03;;;;;;;31.88;62.95;101034.25;5010629;28;70470;-39
2022/10/06 05:00:47;;;;;;;5.43;2.78;;;;;;;31.90;62.91;101025.88;5007899;28;65741;-40
2022/10/06 05:03:18;;;;;;;8.05;2.90;;;;;;;31.64;63.04;100981.69;5016856;28;70004;-39
2022/10/06 05:05:48;;;;;;;9.13;3.10;;;;;;;31.93;62.93;101022.75;5006836;28;66851;-39
2022/10/06 05:08:19;;;;;;;5.28;2.55;;;;;;;31.93;62.62;101015.47;5005019;28;69692;-39
2022/10/06 05:10:49;;;;;;;10.75;2.90;;;;;;;31.95;62.96;101009.78;4986969;28;66222;-39
2022/10/06 05:13:20;;;;;;;5.28;2.70;;;;;;;31.95;63.01;101002.47;5010353;28;70530;-39
2022/10/06 05:15:58;;;;;;;9.85;2.90;;;;;;;31.87;62.83;100994.59;5005297;28;66202;-39
2022/10/06 05:18:33;;;;;;;5.05;2.88;;;;;;;31.98;63.02;100995.78;4989739;28;70095;-40
2022/10/06 05:21:26;;;;;;;10.35;2.80;;;;;;;31.89;63.29;100992.50;4998326;28;66770;-40
2022/10/06 05:23:57;;;;;;;7.25;2.50;;;;;;;31.97;62.95;100989.53;5013003;28;69394;-39
2022/10/06 05:26:30;;;;;;;11.10;2.45;;;;;;;31.90;63.13;100967.03;5005963;28;66342;-39
2022/10/06 05:29:03;;;;;;;3.38;2.10;;;;;;;32.00;62.58;100972.78;5014438;28;69379;-39
2022/10/06 05:31:41;;;;;;;3.53;2.60;;;;;;;32.02;62.73;100964.44;5006270;28;66134;-38
2022/10/06 05:34:14;;;;;;;2.75;2.17;;;;;;;32.02;62.81;100948.16;5011955;28;70290;-39
2022/10/06 05:36:46;;;;;;;8.48;2.20;;;;;;;32.02;62.92;100943.56;5007684;28;66303;-39
2022/10/06 05:39:17;;;;;;;7.15;2.20;;;;;;;32.00;62.96;100923.13;5007276;28;70442;-39
2022/10/06 05:41:51;;;;;;;8.23;2.30;;;;;;;32.04;62.89;100919.75;4994989;28;66271;-39
2022/10/06 05:44:22;;;;;;;3.97;2.25;;;;;;;32.05;62.94;100910.53;4999423;28;70345;-39
2022/10/06 05:46:52;;;;;;;7.10;2.40;;;;;;;32.05;62.93;100896.97;5014096;28;66274;-39
2022/10/06 05:49:22;;;;;;;8.88;2.30;;;;;;;32.08;63.21;100892.16;5019257;28;70709;-39
2022/10/06 05:52:00;;;;;;;2.63;1.98;;;;;;;32.00;62.81;100864.25;5010011;28;65565;-39
2022/10/06 05:54:36;;;;;;;2.85;1.88;;;;;;;32.08;62.66;100856.88;4996732;28;43101;-38
2022/10/06 05:57:08;;;;;;;6.00;1.70;;;;;;;32.06;62.74;100851.66;5011708;28;65956;-39
2022/10/06 05:59:39;;;;;;;2.30;1.92;;;;;;;32.07;62.70;100847.91;5014507;28;70157;-38
2022/10/06 06:02:10;;;;;;;4.43;2.22;;;;;;;32.08;62.81;100843.31;5001587;28;65309;-38
2022/10/06 06:04:43;;;;;;;8.40;2.45;;;;;;;32.11;62.56;100837.41;5013363;28;70311;-39
2022/10/06 06:07:14;;;;;;;7.40;2.05;;;;;;;32.05;62.82;100814.75;5014995;28;68092;-39
2022/10/06 06:09:46;;;;;;;9.00;1.88;;;;;;;32.09;62.56;100817.81;5021362;28;69996;-39
2022/10/06 06:12:17;;;;;;;9.35;2.22;;;;;;;32.10;62.80;100792.34;5000031;28;66300;-39
2022/10/06 06:17:47;;;;;;;6.82;2.13;;;;;;;32.10;63.10;100782.31;5012989;28;66363;-39
2022/10/06 06:20:18;;;;;;;7.93;2.10;;;;;;;32.13;63.07;100781.84;4999380;28;70139;-39
2022/10/06 06:22:52;;;;;;;5.57;2.17;;;;;;;31.91;62.92;100732.72;5016559;28;66473;-39
2022/10/06 06:25:29;;;;;;;6.90;1.48;;;;;;;31.81;62.99;100713.41;5014774;28;70088;-39
2022/10/06 06:27:59;;;;;;;6.50;1.73;;;;;;;32.04;62.88;100737.13;5017042;28;65063;-39
2022/10/06 06:30:30;;;;;;;6.55;2.20;;;;;;;32.15;63.00;100746.34;5012960;28;70367;-39
2022/10/06 06:33:00;;;;;;;4.05;1.58;;;;;;;32.03;62.63;100722.72;5013654;28;65939;-38
2022/10/06 06:35:31;;;;;;;4.60;1.35;;;;;;;32.15;63.08;100740.91;5017746;28;69194;-39
2022/10/06 06:38:01;;;;;;;4.55;1.63;;;;;;;32.16;62.94;100734.44;4999428;28;66381;-40
2022/10/06 06:40:33;;;;;;;6.05;1.48;;;;;;;32.15;63.13;100730.06;5015634;28;69426;-38
2022/10/06 06:43:03;;;;;;;7.70;1.77;;;;;;;32.13;63.51;100718.63;5001047;28;65334;-40
2022/10/06 06:46:02;;;;;;;9.70;2.10;;;;;;;32.12;63.71;100711.53;5015973;28;70045;-39
2022/10/06 06:49:03;;;;;;;7.20;2.22;;;;;;;32.10;63.30;100689.25;5012118;28;66402;-39
2022/10/06 06:51:48;;;;;;;6.22;1.98;;;;;;;32.15;63.34;100697.47;5016410;28;70737;-40
2022/10/06 06:54:21;;;;;;;16.42;3.13;;;;;;;32.14;63.38;100687.69;5016050;28;66701;-40
2022/10/06 06:56:56;;;;;;;17.33;3.70;;;;;;;32.13;63.55;100689.59;4995003;28;70457;-39
2022/10/06 06:59:27;;;;;;;22.60;4.88;;;;;;;31.99;63.56;100667.28;5015180;28;65706;-38
2022/10/06 07:01:59;;;;;;;13.02;3.22;;;;;;;32.12;63.49;100689.81;4997729;28;70173;-38
2022/10/06 07:04:36;;;;;;;14.05;3.75;;;;;;;32.09;63.33;100677.53;5015732;28;66157;-38
2022/10/06 07:07:11;;;;;;;21.52;4.35;;;;;;;31.57;63.63;100599.47;5014408;28;70491;-38
2022/10/06 07:09:42;;;;;;;14.80;3.78;;;;;;;32.15;63.54;100687.47;5014305;28;65555;-39
2022/10/06 07:12:14;;;;;;;16.10;4.03;;;;;;;32.03;63.81;100673.06;5011664;28;69178;-39
2022/10/06 07:26:20;;;;;;;9.27;3.25;;;;;;;32.09;63.74;100672.09;5014624;28;65736;-39
2022/10/06 07:28:52;;;;;;;7.82;2.90;;;;;;;32.15;63.66;100675.78;5022208;28;69750;-41
2022/10/06 07:31:24;;;;;;;9.70;2.72;;;;;;;32.12;63.92;100662.69;4999259;28;65119;-39
2022/10/06 07:33:55;;;;;;;10.95;3.30;;;;;;;31.80;63.56;100600.56;4982280;28;70414;-38
2022/10/06 07:36:26;;;;;;;13.45;2.65;;;;;;;32.16;63.98;100650.31;5016858;28;67600;-38
2022/10/06 07:38:57;;;;;;;10.02;3.17;;;;;;;32.13;63.84;100650.78;5014145;28;69703;-39
2022/10/06 07:41:30;;;;;;;10.43;2.92;;;;;;;32.10;63.57;100651.25;5014783;28;66673;-39
2022/10/06 07:44:04;;;;;;;8.40;2.47;;;;;;;32.16;63.70;100661.16;5012533;28;70376;-39
2022/10/06 07:46:38;;;;;;;11.27;2.92;;;;;;;32.01;63.65;100629.88;4986391;28;65939;-39
2022/10/06 07:49:17;;;;;;;10.23;2.95;;;;;;;32.17;63.66;100646.53;5009445;28;70273;-38
2022/10/06 07:51:49;;;;;;;13.13;3.10;;;;;;;32.07;63.34;100636.25;5011754;28;66384;-39
2022/10/06 07:54:20;;;;;;;;;;;;;;;31.84;64.69;100647.84;5016961;28;69667;-39
2022/10/06 07:57:22;;;;;;;8.10;2.53;;;;;;;32.12;63.62;100655.34;5015631;28;66667;-39
2022/10/06 07:59:52;;;;;;;6.75;2.45;;;;;;;32.17;63.54;100657.38;5015422;28;70668;-39
2022/10/06 08:02:28;;;;;;;5.30;2.33;;;;;;;32.10;63.83;100649.38;5015185;28;65431;-39
2022/10/06 08:05:04;;;;;;;10.15;2.78;;;;;;;32.17;63.71;100660.91;5014690;28;69395;-39
2022/10/06 08:07:35;;;;;;;7.50;2.63;;;;;;;32.12;63.73;100659.97;5015228;28;66483;-39
2022/10/06 08:10:05;;;;;;;7.65;2.90;;;;;;;32.12;63.73;100659.97;5017126;28;70300;-40
2022/10/06 08:12:38;;;;;;;5.78;2.50;;;;;;;32.19;64.05;100666.13;5019383;28;66283;-39
2022/10/06 08:15:11;;;;;;;13.30;2.83;;;;;;;32.14;63.75;100655.13;5017095;28;70337;-39
2022/10/06 08:17:42;;;;;;;5.72;2.33;;;;;;;32.20;63.49;100667.75;5016928;28;66342;-39
2022/10/06 08:20:12;;;;;;;9.00;2.20;;;;;;;32.20;63.71;100678.63;5013383;28;68694;-39
2022/10/06 08:22:44;;;;;;;5.82;2.45;;;;;;;32.19;63.69;100671.56;5018415;28;66703;-40
2022/10/06 08:25:14;;;;;;;9.67;3.13;;;;;;;32.17;63.71;100674.47;5017383;28;70454;-39
2022/10/06 08:27:45;;;;;;;12.20;2.95;;;;;;;32.19;63.81;100676.97;5017971;28;66553;-38
2022/10/06 08:30:25;;;;;;;10.77;2.33;;;;;;;32.18;63.59;100673.44;5017420;28;69699;-38
2022/10/06 08:32:57;;;;;;;7.35;2.17;;;;;;;32.18;64.07;100676.16;5017934;28;66812;-39
2022/10/06 08:35:29;;;;;;;;;;;;;;;31.83;65.04;100679.59;5019825;28;70456;-39
2022/10/06 08:37:59;;;;;;;9.50;2.05;;;;;;;32.11;63.94;100680.03;5015674;28;66489;-39
2022/10/06 08:40:30;;;;;;;7.00;2.35;;;;;;;32.16;63.78;100682.88;5018158;28;70453;-39
2022/10/06 08:43:02;;;;;;;8.70;2.90;;;;;;;31.68;63.88;100603.25;5018779;28;66686;-39
2022/10/06 08:45:41;;;;;;;5.00;2.25;;;;;;;32.02;64.16;100672.22;5016762;28;70461;-39
2022/10/06 08:48:28;;;;;;;12.10;2.22;;;;;;;32.12;64.22;100698.78;5018656;28;65318;-40
2022/10/06 08:51:18;;;;;;;11.35;2.80;;;;;;;32.15;64.04;100692.06;5016830;28;70425;-43
2022/10/06 08:54:10;;;;;;;11.43;3.08;;;;;;;31.23;64.52;100559.47;5014145;28;65528;-39
2022/10/06 08:57:21;;;;;;;11.45;3.30;;;;;;;31.16;64.42;100549.56;5018266;28;70222;-40
2022/10/06 08:59:52;;;;;;;12.98;3.53;;;;;;;32.07;63.86;100684.25;5015038;28;66124;-39
2022/10/06 09:02:28;;;;;;;9.25;3.75;;;;;;;32.10;64.21;100695.50;5017802;28;69951;-38
2022/10/06 09:05:03;;;;;;;14.00;2.72;;;;;;;32.08;64.32;100688.66;5017859;28;65753;-39
2022/10/06 09:08:00;;;;;;;12.38;2.78;;;;;;;32.01;64.70;100700.44;5019006;28;70422;-39
2022/10/06 09:10:30;;;;;;;10.55;2.83;;;;;;;32.11;64.15;100707.16;5018402;28;65506;-39
2022/10/06 09:13:18;;;;;;;11.10;2.90;;;;;;;31.89;64.32;100683.25;5017161;28;70452;-39
2022/10/06 09:15:57;;;;;;;6.63;2.35;;;;;;;31.63;64.11;100640.28;5015568;28;66233;-38
2022/10/06 09:18:48;;;;;;;8.13;3.08;;;;;;;31.53;64.66;100647.06;5017044;28;70541;-39
2022/10/06 09:21:44;;;;;;;8.77;3.10;;;;;;;32.11;64.87;100740.56;5017529;28;66292;-39
2022/10/06 09:24:40;;;;;;;6.43;2.92;;;;;;;31.43;66.10;100644.09;5010611;28;70662;-38
2022/10/06 09:27:27;;;;;;;5.00;2.63;;;;;;;31.40;67.12;100685.22;5016362;28;67153;-40
2022/10/06 09:29:58;;;;;;;4.32;2.78;;;;;;;31.68;67.83;100746.13;5018378;28;70395;-40
2022/10/06 09:32:30;;;;;;;6.45;3.15;;;;;;;31.63;68.58;100746.03;5015370;28;66757;-40
2022/10/06 09:35:11;;;;;;;12.60;2.97;;;;;;;31.55;68.60;100747.16;5017825;28;69015;-40
2022/10/06 09:38:15;;;;;;;12.18;3.05;;;;;;;31.37;69.50;100745.28;5017423;28;65385;-40
2022/10/06 09:40:51;;;;;;;18.70;3.60;;;;;;;31.38;69.17;100730.69;4978234;28;70085;-39
2022/10/06 09:43:27;;;;;;;13.73;3.25;;;;;;;31.48;69.59;100749.09;5017455;28;67309;-40
2022/10/06 09:46:19;;;;;;;7.93;3.42;;;;;;;31.37;70.02;100746.13;5016683;28;69958;-40
2022/10/06 09:49:16;;;;;;;10.90;3.67;;;;;;;31.35;70.68;100774.47;5016603;28;66188;-39
2022/10/06 09:52:11;;;;;;;6.65;3.20;;;;;;;31.34;70.93;100767.38;5015460;28;70078;-39
2022/10/06 09:54:44;;;;;;;9.70;3.70;;;;;;;31.09;70.75;100722.25;5015389;28;66501;-39
2022/10/06 09:57:20;;;;;;;10.00;3.80;;;;;;;31.44;70.63;100773.13;5018205;28;70524;-39
2022/10/06 09:59:51;;;;;;;10.38;3.88;;;;;;;31.40;70.75;100777.38;5017984;28;66506;-39
2022/10/06 10:02:38;;;;;;;9.88;3.60;;;;;;;30.86;70.94;100692.28;5010019;28;69548;-39
2022/10/06 10:05:22;;;;;;;6.65;3.70;;;;;;;31.35;71.11;100779.91;5016476;28;66426;-40
2022/10/06 10:08:17;;;;;;;7.53;3.72;;;;;;;31.35;71.14;100796.16;5014863;28;70004;-40
2022/10/06 10:10:49;;;;;;;14.32;3.72;;;;;;;31.38;71.36;100779.47;5013942;28;66203;-38
2022/10/06 10:13:25;;;;;;;14.02;4.82;;;;;;;31.37;71.43;100794.06;5014387;28;70474;-40
2022/10/06 10:16:01;;;;;;;7.97;4.78;;;;;;;31.30;71.66;100774.31;5013361;28;65416;-40
2022/10/06 10:18:32;;;;;;;10.30;4.85;;;;;;;31.33;72.23;100782.00;5005001;28;69174;-41
2022/10/06 10:21:05;;;;;;;12.88;5.15;;;;;;;31.24;72.25;100772.53;5017023;28;66094;-41
2022/10/06 10:23:41;;;;;;;18.10;5.65;;;;;;;30.96;72.15;100733.22;5017841;28;70472;-41
2022/10/06 10:26:38;;;;;;;14.48;6.38;;;;;;;30.83;72.44;100717.09;5017535;28;65606;-40
2022/10/06 10:29:29;;;;;;;7.25;5.78;;;;;;;31.35;72.74;100804.28;5013726;28;70531;-40
2022/10/06 10:32:10;;;;;;;13.90;5.90;;;;;;;31.36;72.94;100808.69;5013361;28;66703;-40
2022/10/06 10:34:43;;;;;;;24.05;5.53;;;;;;;31.34;73.15;100810.75;5016411;28;70537;-40
2022/10/06 10:37:17;;;;;;;17.20;5.72;;;;;;;30.97;73.37;100751.13;5016572;28;66020;-39
2022/10/06 10:39:52;;;;;;;9.23;5.25;;;;;;;31.21;73.71;100795.47;5016960;28;70219;-39
2022/10/06 10:42:40;;;;;;;15.63;5.47;;;;;;;31.32;74.25;100837.25;5013079;28;65399;-39
2022/10/06 10:45:35;;;;;;;17.73;5.95;;;;;;;31.42;73.05;100820.50;5010600;28;70110;-39
2022/10/06 10:48:14;;;;;;;9.45;4.93;;;;;;;31.55;71.68;100826.59;5014268;28;65358;-40
2022/10/06 10:51:12;;;;;;;11.85;4.57;;;;;;;30.68;72.04;100688.47;5016651;28;70560;-40
2022/10/06 10:53:54;;;;;;;10.55;4.63;;;;;;;31.64;70.89;100835.25;5013896;28;66724;-39
2022/10/06 10:56:28;;;;;;;5.25;4.50;;;;;;;31.60;70.57;100820.50;5013377;28;70047;-39
2022/10/06 10:59:08;;;;;;;14.77;4.30;;;;;;;31.69;70.75;100831.88;5015148;28;66746;-39
2022/10/06 11:01:45;;;;;;;7.18;4.57;;;;;;;31.71;70.48;100832.47;5016304;28;69143;-39
2022/10/06 11:04:16;;;;;;;7.57;4.00;;;;;;;31.74;70.30;100832.03;5016691;28;65957;-39
2022/10/06 11:07:10;;;;;;;7.55;4.05;;;;;;;31.34;70.04;100780.94;5013378;28;70579;-39
2022/10/06 11:10:13;;;;;;;7.22;4.60;;;;;;;31.72;69.79;100855.81;5012088;28;66397;-39
2022/10/06 11:12:49;;;;;;;4.45;4.05;;;;;;;31.76;69.72;100857.00;5009658;28;70075;-39
2022/10/06 11:15:47;;;;;;;7.75;3.67;;;;;;;31.65;70.04;100844.22;5010916;28;66658;-37
2022/10/06 11:18:24;;;;;;;7.00;3.80;;;;;;;31.71;69.80;100848.75;5006290;28;68839;-41
2022/10/06 11:21:02;;;;;;;7.68;3.70;;;;;;;31.51;71.35;100855.22;5008149;28;66445;-38
2022/10/06 11:23:52;;;;;;;4.75;3.63;;;;;;;31.36;72.35;100857.47;5011238;28;69709;-40
2022/10/06 11:26:36;;;;;;;5.38;3.08;;;;;;;31.33;73.19;100860.59;5013349;28;67620;-39
2022/10/06 11:29:13;;;;;;;5.45;3.90;;;;;;;31.33;73.71;100857.88;5015105;28;70370;-39
2022/10/06 11:32:12;;;;;;;6.32;3.70;;;;;;;31.19;73.83;100856.38;5016318;28;66240;-40
2022/10/06 11:34:47;;;;;;;4.97;3.65;;;;;;;31.22;73.72;100855.91;5013413;28;68652;-39
2022/10/06 11:37:34;;;;;;;4.57;3.75;;;;;;;31.18;73.25;100860.97;5012009;28;65752;-39
2022/10/06 11:40:23;;;;;;;10.65;3.72;;;;;;;31.16;73.88;100863.88;5011126;28;70249;-40
2022/10/06 11:43:11;;;;;;;6.88;4.15;;;;;;;30.57;73.98;100777.72;5013791;28;66308;-39
2022/10/06 11:46:06;;;;;;;4.32;3.90;;;;;;;30.48;74.00;100780.69;5021423;28;70280;-39
2022/10/06 11:48:37;;;;;;;3.72;3.42;;;;;;;31.07;74.14;100865.22;5017622;28;65474;-40
2022/10/06 11:51:23;;;;;;;4.57;4.05;;;;;;;31.03;73.93;100869.41;5000718;28;69647;-40
2022/10/06 11:53:54;;;;;;;5.43;4.32;;;;;;;31.03;74.23;100880.25;5014356;28;66051;-40
2022/10/06 11:56:37;;;;;;;4.40;4.03;;;;;;;31.01;74.42;100876.94;5014986;28;70086;-39
2022/10/06 11:59:09;;;;;;;4.28;3.80;;;;;;;30.54;74.25;100806.06;5011224;28;66217;-40
2022/10/06 12:01:46;;;;;;;5.20;4.07;;;;;;;31.01;74.45;100882.38;5014263;28;69999;-39
2022/10/06 12:04:17;;;;;;;5.63;4.07;;;;;;;30.90;74.72;100864.13;5013118;28;66449;-39
2022/10/06 12:06:56;;;;;;;4.45;4.03;;;;;;;31.00;74.70;100888.81;5004008;28;69198;-39
2022/10/06 12:09:37;;;;;;;4.53;4.13;;;;;;;30.59;74.85;100824.31;5000293;28;66042;-40
2022/10/06 12:12:17;;;;;;;4.43;3.65;;;;;;;30.95;75.09;100894.06;5003530;28;70369;-39
2022/10/06 12:15:06;;;;;;;5.18;4.15;;;;;;;30.95;74.82;100896.78;4998469;28;66298;-39